createdAt,value
2023-04-28T00:02:51.608Z,0.00
2023-04-28T00:07:51.471Z,0.00
2023-04-28T00:12:51.421Z,0.00
2023-04-28T00:17:51.507Z,0.00
2023-04-28T00:22:51.262Z,0.00
2023-04-28T00:27:51.210Z,0.00
2023-04-28T00:32:51.165Z,0.00
2023-04-28T00:37:51.071Z,0.00
2023-04-28T00:42:50.995Z,0.00
2023-04-28T00:47:50.966Z,0.00
2023-04-28T00:52:50.889Z,0.00
2023-04-28T00:57:50.802Z,0.00
2023-04-28T01:02:50.847Z,0.00
2023-04-28T01:07:50.672Z,0.00
2023-04-28T01:12:50.598Z,0.00
2023-04-28T01:17:50.553Z,0.00
2023-04-28T01:22:50.485Z,0.00
2023-04-28T01:27:50.437Z,0.00
2023-04-28T01:32:50.441Z,0.00
2023-04-28T01:37:50.279Z,0.00
2023-04-28T01:42:50.218Z,0.00
2023-04-28T01:47:50.226Z,0.00
2023-04-28T01:52:50.069Z,0.00
2023-04-28T01:57:50.018Z,0.00
2023-04-28T02:02:50.033Z,0.00
2023-04-28T02:07:49.883Z,0.00
2023-04-28T02:12:49.801Z,0.00
2023-04-28T02:17:49.792Z,0.00
2023-04-28T02:22:49.668Z,0.00
2023-04-28T02:27:49.613Z,0.00
2023-04-28T02:32:49.587Z,0.00
2023-04-28T02:37:49.481Z,0.00
2023-04-28T02:42:49.398Z,0.00
2023-04-28T02:47:49.421Z,0.00
2023-04-28T02:52:49.340Z,0.00
2023-04-28T02:57:49.212Z,0.00
2023-04-28T03:02:49.204Z,0.00
2023-04-28T03:07:49.076Z,0.00
2023-04-28T03:12:49.022Z,0.00
2023-04-28T03:17:48.985Z,0.00
2023-04-28T03:22:48.877Z,0.00
2023-04-28T03:27:48.826Z,0.00
2023-04-28T03:32:48.781Z,0.00
2023-04-28T03:37:48.688Z,5.62
2023-04-28T03:42:48.612Z,5.62
2023-04-28T03:47:48.605Z,11.25
2023-04-28T03:52:48.477Z,22.50
2023-04-28T03:57:48.421Z,28.12
2023-04-28T04:02:48.527Z,45.00
2023-04-28T04:07:48.286Z,61.88
2023-04-28T04:12:48.218Z,84.38
2023-04-28T04:17:48.233Z,95.62
2023-04-28T04:22:48.128Z,118.12
2023-04-28T04:27:48.117Z,118.12
2023-04-28T04:32:48.058Z,140.62
2023-04-28T04:37:48.003Z,213.75
2023-04-28T04:42:47.885Z,320.62
2023-04-28T04:47:47.908Z,247.50
2023-04-28T04:52:47.744Z,230.62
2023-04-28T04:57:47.709Z,247.50
2023-04-28T05:02:47.773Z,219.38
2023-04-28T05:07:47.568Z,191.25
2023-04-28T05:12:49.180Z,174.38
2023-04-28T05:17:47.532Z,168.75
2023-04-28T05:22:47.393Z,208.12
2023-04-28T05:27:47.288Z,264.38
2023-04-28T05:32:47.289Z,275.62
2023-04-28T05:37:47.177Z,405.00
2023-04-28T05:42:47.081Z,551.25
2023-04-28T05:47:47.126Z,545.62
2023-04-28T05:52:46.954Z,545.62
2023-04-28T05:57:53.085Z,635.62
2023-04-28T06:02:47.938Z,663.75
2023-04-28T06:07:48.326Z,1490.62
2023-04-28T06:12:46.710Z,3397.50
2023-04-28T06:17:46.645Z,3515.62
2023-04-28T06:22:46.559Z,3661.88
2023-04-28T06:27:46.491Z,1608.75
2023-04-28T06:32:46.458Z,1209.38
2023-04-28T06:37:46.364Z,1231.88
2023-04-28T06:42:46.407Z,1411.88
2023-04-28T06:47:46.440Z,1158.75
2023-04-28T06:52:46.458Z,1125.00
2023-04-28T06:57:46.257Z,1861.88
2023-04-28T07:02:46.627Z,2244.38
2023-04-28T07:07:45.956Z,1265.62
2023-04-28T07:12:45.874Z,2486.25
2023-04-28T07:17:45.860Z,2413.12
2023-04-28T07:22:45.757Z,1614.38
2023-04-28T07:27:45.648Z,1485.00
2023-04-28T07:32:45.588Z,1440.00
2023-04-28T07:37:45.514Z,1130.62
2023-04-28T07:42:45.439Z,2818.12
2023-04-28T07:47:45.379Z,2199.38
2023-04-28T07:52:45.291Z,1417.50
2023-04-28T07:57:45.228Z,2176.88
2023-04-28T08:02:45.214Z,1428.75
2023-04-28T08:07:45.091Z,1068.75
2023-04-28T08:12:45.023Z,1546.88
2023-04-28T08:17:45.026Z,1535.62
2023-04-28T08:22:44.895Z,1659.38
2023-04-28T08:27:44.870Z,2008.12
2023-04-28T08:32:44.767Z,1192.50
2023-04-28T08:37:44.695Z,1085.62
2023-04-28T08:42:44.605Z,798.75
2023-04-28T08:47:44.589Z,1023.75
2023-04-28T08:52:44.472Z,1265.62
2023-04-28T08:57:44.582Z,1046.25
2023-04-28T09:02:44.572Z,1175.62
2023-04-28T09:07:44.285Z,939.38
2023-04-28T09:12:44.219Z,849.38
2023-04-28T09:17:44.181Z,781.88
2023-04-28T09:22:44.131Z,810.00
2023-04-28T09:27:44.020Z,781.88
2023-04-28T09:32:44.018Z,646.88
2023-04-28T09:37:43.890Z,630.00
2023-04-28T09:42:43.817Z,601.88
2023-04-28T09:47:43.808Z,472.50
2023-04-28T09:52:43.685Z,337.50
2023-04-28T09:57:43.618Z,292.50
2023-04-28T10:02:44.218Z,382.50
2023-04-28T10:07:43.510Z,511.88
2023-04-28T10:12:43.411Z,573.75
2023-04-28T10:17:43.409Z,669.38
2023-04-28T10:22:43.306Z,573.75
2023-04-28T10:27:43.223Z,388.12
2023-04-28T10:32:43.160Z,354.38
2023-04-28T10:37:43.089Z,281.25
2023-04-28T10:42:43.040Z,275.62
2023-04-28T10:47:42.997Z,258.75
2023-04-28T10:52:42.975Z,225.00
2023-04-28T10:57:42.835Z,208.12
2023-04-28T11:02:44.768Z,174.38
2023-04-28T11:07:42.716Z,174.38
2023-04-28T11:12:42.658Z,157.50
2023-04-28T11:17:42.616Z,208.12
2023-04-28T11:22:42.523Z,225.00
2023-04-28T11:27:42.426Z,275.62
2023-04-28T11:32:42.413Z,241.88
2023-04-28T11:37:42.301Z,309.38
2023-04-28T11:42:42.219Z,331.88
2023-04-28T11:47:42.263Z,354.38
2023-04-28T11:52:42.081Z,410.62
2023-04-28T11:57:42.042Z,540.00
2023-04-28T12:02:42.017Z,585.00
2023-04-28T12:07:41.880Z,821.25
2023-04-28T12:12:50.936Z,714.38
2023-04-28T12:17:42.781Z,652.50
2023-04-28T12:22:41.677Z,635.62
2023-04-28T12:27:41.627Z,613.12
2023-04-28T12:32:41.581Z,669.38
2023-04-28T12:37:41.506Z,787.50
2023-04-28T12:42:41.407Z,855.00
2023-04-28T12:47:41.399Z,675.00
2023-04-28T12:52:41.302Z,472.50
2023-04-28T12:57:41.213Z,500.62
2023-04-28T13:02:41.315Z,405.00
2023-04-28T13:07:41.092Z,292.50
2023-04-28T13:12:41.003Z,326.25
2023-04-28T13:17:40.970Z,320.62
2023-04-28T13:22:40.878Z,331.88
2023-04-28T13:27:43.148Z,337.50
2023-04-28T13:32:40.774Z,309.38
2023-04-28T13:37:40.704Z,337.50
2023-04-28T13:42:40.611Z,410.62
2023-04-28T13:47:40.588Z,438.75
2023-04-28T13:52:40.468Z,478.12
2023-04-28T13:57:40.390Z,495.00
2023-04-28T14:02:41.137Z,382.50
2023-04-28T14:07:40.259Z,298.12
2023-04-28T14:12:40.183Z,258.75
2023-04-28T14:17:40.144Z,236.25
2023-04-28T14:22:40.051Z,225.00
2023-04-28T14:27:39.979Z,208.12
2023-04-28T14:32:40.264Z,196.88
2023-04-28T14:37:39.889Z,213.75
2023-04-28T14:42:39.804Z,236.25
2023-04-28T14:47:39.776Z,241.88
2023-04-28T14:52:39.650Z,225.00
2023-04-28T14:57:39.585Z,208.12
2023-04-28T15:02:39.679Z,180.00
2023-04-28T15:07:39.459Z,225.00
2023-04-28T15:12:39.402Z,281.25
2023-04-28T15:17:39.375Z,241.88
2023-04-28T15:22:39.262Z,196.88
2023-04-28T15:27:39.198Z,146.25
2023-04-28T15:32:39.181Z,140.62
2023-04-28T15:37:39.070Z,151.88
2023-04-28T15:42:38.992Z,180.00
2023-04-28T15:47:39.217Z,168.75
2023-04-28T15:52:38.860Z,129.38
2023-04-28T15:57:38.804Z,106.88
2023-04-28T16:02:39.333Z,95.62
2023-04-28T16:07:47.121Z,78.75
2023-04-28T16:12:38.997Z,67.50
2023-04-28T16:17:38.801Z,67.50
2023-04-28T16:22:38.488Z,67.50
2023-04-28T16:27:38.440Z,84.38
2023-04-28T16:32:38.792Z,78.75
2023-04-28T16:37:38.446Z,67.50
2023-04-28T16:42:38.250Z,45.00
2023-04-28T16:47:38.220Z,56.25
2023-04-28T16:52:38.235Z,56.25
2023-04-28T16:57:40.180Z,56.25
2023-04-28T17:02:38.166Z,56.25
2023-04-28T17:07:38.337Z,56.25
2023-04-28T17:12:37.980Z,50.62
2023-04-28T17:17:38.759Z,50.62
2023-04-28T17:22:37.846Z,61.88
2023-04-28T17:27:37.653Z,61.88
2023-04-28T17:32:37.665Z,39.38
2023-04-28T17:37:37.509Z,28.12
2023-04-28T17:42:37.439Z,22.50
2023-04-28T17:47:37.389Z,22.50
2023-04-28T17:52:37.314Z,22.50
2023-04-28T17:57:37.271Z,11.25
2023-04-28T18:02:37.287Z,5.62
2023-04-28T18:07:37.104Z,0.00
2023-04-28T18:12:37.038Z,0.00
2023-04-28T18:17:37.030Z,0.00
2023-04-28T18:22:36.928Z,0.00
2023-04-28T18:27:36.809Z,0.00
2023-04-28T18:32:36.909Z,0.00
2023-04-28T18:37:36.712Z,0.00
2023-04-28T18:42:36.664Z,0.00
2023-04-28T18:47:36.640Z,0.00
2023-04-28T18:52:36.495Z,0.00
2023-04-28T18:57:36.427Z,0.00
2023-04-28T19:02:36.406Z,0.00
2023-04-28T19:07:36.295Z,0.00
2023-04-28T19:12:36.217Z,0.00
2023-04-28T19:17:38.208Z,0.00
2023-04-28T19:22:36.077Z,0.00
2023-04-28T19:27:35.982Z,0.00
2023-04-28T19:32:35.942Z,0.00
2023-04-28T19:37:36.129Z,0.00
2023-04-28T19:42:36.370Z,0.00
2023-04-28T19:47:35.824Z,0.00
2023-04-28T19:52:35.664Z,0.00
2023-04-28T19:57:35.597Z,0.00
2023-04-28T20:02:35.673Z,0.00
2023-04-28T20:07:35.436Z,0.00
2023-04-28T20:12:35.420Z,0.00
2023-04-28T20:17:35.362Z,0.00
2023-04-28T20:22:35.267Z,0.00
2023-04-28T20:27:35.177Z,0.00
2023-04-28T20:32:35.156Z,0.00
2023-04-28T20:37:35.042Z,0.00
2023-04-28T20:42:34.968Z,0.00
2023-04-28T20:47:34.950Z,0.00
2023-04-28T20:52:34.854Z,0.00
2023-04-28T20:57:34.758Z,0.00
2023-04-28T21:02:34.851Z,0.00
2023-04-28T21:07:34.644Z,0.00
2023-04-28T21:12:34.560Z,0.00
2023-04-28T21:17:34.508Z,0.00
2023-04-28T21:22:34.418Z,0.00
2023-04-28T21:27:34.347Z,0.00
2023-04-28T21:32:34.339Z,0.00
2023-04-28T21:37:34.229Z,0.00
2023-04-28T21:42:34.154Z,0.00
2023-04-28T21:47:34.112Z,0.00
2023-04-28T21:52:34.013Z,0.00
2023-04-28T21:57:33.938Z,0.00
2023-04-28T22:02:33.956Z,0.00
2023-04-28T22:07:33.818Z,0.00
2023-04-28T22:12:33.768Z,0.00
2023-04-28T22:17:33.719Z,0.00
2023-04-28T22:22:33.627Z,0.00
2023-04-28T22:27:33.550Z,0.00
2023-04-28T22:32:33.519Z,0.00
2023-04-28T22:37:33.415Z,0.00
2023-04-28T22:42:33.406Z,0.00
2023-04-28T22:47:33.309Z,0.00
2023-04-28T22:52:33.243Z,0.00
2023-04-28T22:57:33.198Z,0.00
2023-04-28T23:02:33.346Z,0.00
2023-04-28T23:07:33.133Z,0.00
2023-04-28T23:12:33.105Z,0.00
2023-04-28T23:17:33.009Z,0.00
2023-04-28T23:22:32.930Z,0.00
2023-04-28T23:27:32.869Z,0.00
2023-04-28T23:32:32.791Z,0.00
2023-04-28T23:37:32.735Z,0.00
2023-04-28T23:42:32.580Z,0.00
2023-04-28T23:47:32.546Z,0.00
2023-04-28T23:52:32.483Z,0.00
2023-04-28T23:57:32.438Z,0.00
